Time;durP1;ratioP1;P1;durP2;ratioP2;P2;SDS_P1;SDS_P2;PMS_P1;PMS_P2;Temp;Humidity;BMP_temperature;BMP_pressure;BME280_temperature;BME280_humidity;BME280_pressure;Samples;Min_cycle;Max_cycle;Signal;HPM_P1;HPM_P2
2021/12/15 00:02:11;;;;;;;12.40;9.30;;;;;;;6.66;86.54;96812.16;4996822;28;20195;-83
2021/12/15 00:04:38;;;;;;;12.57;9.40;;;;;;;6.68;86.51;96810.28;5001867;28;20359;-83
2021/12/15 00:07:05;;;;;;;14.23;10.23;;;;;;;6.68;86.58;96818.78;4997822;28;20258;-82
2021/12/15 00:09:31;;;;;;;12.13;9.50;;;;;;;6.70;85.93;96823.78;4996915;28;20230;-83
2021/12/15 00:11:58;;;;;;;14.80;10.27;;;;;;;6.72;86.17;96822.72;4996559;28;20257;-82
2021/12/15 00:14:24;;;;;;;13.23;9.47;;;;;;;6.70;85.84;96819.47;4977221;28;20211;-83
2021/12/15 00:16:51;;;;;;;12.93;9.73;;;;;;;6.69;86.44;96825.50;4989455;28;20219;-83
2021/12/15 00:19:19;;;;;;;13.73;9.57;;;;;;;6.67;86.34;96817.16;4997910;28;20230;-83
2021/12/15 00:21:46;;;;;;;13.10;9.83;;;;;;;6.65;86.35;96819.00;4996374;28;20231;-83
2021/12/15 00:24:12;;;;;;;12.00;9.50;;;;;;;6.71;86.18;96821.09;4999646;28;20218;-83
2021/12/15 00:26:39;;;;;;;14.83;10.07;;;;;;;6.75;85.93;96831.88;5006288;28;20192;-83
2021/12/15 00:29:06;;;;;;;13.37;9.43;;;;;;;6.79;85.51;96828.13;4996223;28;20230;-82
2021/12/15 00:31:33;;;;;;;12.43;8.60;;;;;;;6.80;85.84;96834.88;4996928;28;20235;-83
2021/12/15 00:34:01;;;;;;;12.03;9.10;;;;;;;6.80;85.77;96840.00;4997494;28;20398;-83
2021/12/15 00:36:29;;;;;;;11.97;8.70;;;;;;;6.82;85.34;96827.91;4995874;28;20231;-82
2021/12/15 00:38:55;;;;;;;12.10;9.23;;;;;;;6.80;85.48;96827.22;4978023;28;20242;-83
2021/12/15 00:41:22;;;;;;;12.33;9.20;;;;;;;6.77;85.80;96830.00;4993548;28;20231;-83
2021/12/15 00:43:49;;;;;;;12.67;9.17;;;;;;;6.77;85.26;96824.88;4996028;28;20699;-83
2021/12/15 00:46:16;;;;;;;12.40;9.43;;;;;;;6.73;85.94;96829.47;5012117;28;20612;-83
2021/12/15 00:48:42;;;;;;;11.40;9.27;;;;;;;6.75;85.52;96827.56;5008029;28;20218;-83
2021/12/15 00:51:10;;;;;;;12.70;9.37;;;;;;;6.74;85.38;96825.94;4996701;28;20248;-83
2021/12/15 00:53:38;;;;;;;13.87;9.63;;;;;;;6.74;85.78;96832.81;4997006;28;20195;-83
2021/12/15 00:56:05;;;;;;;13.07;9.87;;;;;;;6.73;86.03;96826.91;5013009;28;20222;-83
2021/12/15 00:58:32;;;;;;;13.43;9.97;;;;;;;6.72;86.13;96824.47;5002563;28;20671;-82
2021/12/15 01:01:02;;;;;;;15.37;10.23;;;;;;;6.74;86.08;96832.81;4995322;28;20234;-83
2021/12/15 01:03:30;;;;;;;14.37;9.47;;;;;;;6.76;86.34;96838.63;4996419;28;20666;-83
2021/12/15 01:06:07;;;;;;;14.00;10.40;;;;;;;6.77;86.71;96835.13;5001555;28;20208;-83
2021/12/15 01:08:38;;;;;;;14.80;9.93;;;;;;;6.79;86.27;96844.31;4995120;28;20235;-82
2021/12/15 01:11:17;;;;;;;15.73;10.00;;;;;;;6.72;86.40;96847.50;4995276;28;20235;-82
2021/12/15 01:22:08;;;;;;;14.47;10.37;;;;;;;6.59;86.59;96858.69;4997287;28;20884;-83
2021/12/15 01:24:34;;;;;;;14.77;10.23;;;;;;;6.48;87.68;96857.91;5000938;28;20199;-82
2021/12/15 01:27:03;;;;;;;15.10;10.33;;;;;;;6.51;87.88;96858.50;4997542;28;20204;-82
2021/12/15 01:29:29;;;;;;;14.13;9.53;;;;;;;6.56;87.92;96853.00;5002354;28;20214;-81
2021/12/15 01:31:56;;;;;;;14.03;10.23;;;;;;;6.51;87.64;96848.25;5014909;28;20206;-82
2021/12/15 01:34:23;;;;;;;15.83;10.57;;;;;;;6.45;87.16;96853.84;4996890;28;20241;-82
2021/12/15 01:36:50;;;;;;;14.50;10.80;;;;;;;6.48;87.45;96853.59;4993410;28;20220;-82
2021/12/15 01:39:16;;;;;;;14.73;10.60;;;;;;;6.52;87.03;96855.00;4996951;28;20565;-82
2021/12/15 01:41:43;;;;;;;14.40;10.37;;;;;;;6.58;87.01;96858.81;4996741;28;20254;-82
2021/12/15 01:47:01;;;;;;;14.93;10.27;;;;;;;6.71;85.85;96866.34;5005000;28;20293;-82
2021/12/15 01:49:37;;;;;;;13.73;9.30;;;;;;;6.74;85.70;96871.19;5009093;28;20219;-82
2021/12/15 01:52:07;;;;;;;12.63;9.77;;;;;;;6.77;85.55;96868.41;5003563;28;20211;-82
2021/12/15 01:54:40;;;;;;;11.90;9.17;;;;;;;6.80;85.22;96863.84;4998325;28;20207;-82
2021/12/15 01:57:08;;;;;;;13.53;8.97;;;;;;;6.82;85.22;96874.78;5003564;28;20726;-82
2021/12/15 01:59:37;;;;;;;11.13;8.07;;;;;;;6.85;84.51;96855.81;4994183;28;20862;-82
2021/12/15 02:02:05;;;;;;;10.23;8.00;;;;;;;6.83;84.13;96868.75;4994667;28;20208;-82
2021/12/15 02:04:32;;;;;;;11.27;8.70;;;;;;;6.84;84.07;96857.56;5000908;28;20198;-82
2021/12/15 02:06:59;;;;;;;11.40;9.00;;;;;;;6.88;84.32;96860.69;4995121;28;20203;-83
2021/12/15 02:10:01;;;;;;;13.27;9.70;;;;;;;6.88;84.19;96855.59;4994401;28;20230;-82
2021/12/15 02:12:32;;;;;;;12.33;9.33;;;;;;;6.88;84.34;96861.50;4993694;28;20230;-82
2021/12/15 02:15:01;;;;;;;13.43;9.43;;;;;;;6.89;84.17;96859.78;4993579;28;20219;-83
2021/12/15 02:17:28;;;;;;;12.33;9.20;;;;;;;6.89;83.77;96847.78;4994832;28;20209;-82
2021/12/15 02:19:55;;;;;;;12.40;9.77;;;;;;;6.90;84.10;96857.09;4992967;28;20227;-82
2021/12/15 02:22:23;;;;;;;13.40;9.80;;;;;;;6.84;84.58;96849.88;4994006;28;20207;-83
2021/12/15 02:24:51;;;;;;;14.80;10.33;;;;;;;6.82;84.61;96845.81;4993261;28;20200;-83
2021/12/15 02:27:18;;;;;;;13.17;10.03;;;;;;;6.78;85.04;96847.81;4992894;28;20203;-82
2021/12/15 02:29:48;;;;;;;13.47;10.17;;;;;;;6.79;85.19;96846.06;5000921;28;20217;-82
2021/12/15 02:32:20;;;;;;;14.47;10.60;;;;;;;6.69;85.95;96846.00;5007615;28;20231;-82
2021/12/15 02:37:05;;;;;;;13.47;10.73;;;;;;;6.72;86.28;96844.94;4992939;28;20520;-82
2021/12/15 02:37:45;;;;;;;13.80;10.07;;;;;;;6.79;85.82;96846.88;4991329;28;20202;-82
2021/12/15 02:40:16;;;;;;;14.37;10.87;;;;;;;6.76;85.90;96848.84;4992245;28;20241;-82
2021/12/15 02:42:46;;;;;;;17.07;12.00;;;;;;;6.73;85.96;96837.16;4992768;28;20207;-82
2021/12/15 02:45:16;;;;;;;16.77;11.47;;;;;;;6.63;86.76;96836.22;5001157;28;20652;-82
2021/12/15 02:47:42;;;;;;;16.20;11.47;;;;;;;6.67;86.62;96837.63;5012406;28;20207;-82
2021/12/15 02:50:12;;;;;;;15.20;11.40;;;;;;;6.71;86.35;96833.06;4992154;28;20231;-82
2021/12/15 02:52:40;;;;;;;15.80;11.37;;;;;;;6.70;86.42;96829.69;4993311;28;20226;-82
2021/12/15 02:55:09;;;;;;;17.03;11.43;;;;;;;6.70;86.36;96841.69;4991714;28;20199;-82
2021/12/15 02:57:36;;;;;;;16.23;11.23;;;;;;;6.70;86.60;96846.81;4993020;28;20728;-82
2021/12/15 03:00:16;;;;;;;14.47;10.50;;;;;;;6.71;87.01;96844.13;4992284;28;20231;-82
2021/12/15 03:05:41;;;;;;;18.80;11.13;;;;;;;6.56;87.47;96848.69;4976772;28;20207;-82
2021/12/15 03:08:12;;;;;;;20.53;12.23;;;;;;;6.60;87.54;96844.16;4991680;28;20259;-82
2021/12/15 03:16:12;;;;;;;15.97;10.97;;;;;;;6.76;87.00;96848.84;4992451;28;20222;-82
2021/12/15 03:18:39;;;;;;;16.77;10.93;;;;;;;6.80;86.73;96851.06;4992309;28;20226;-82
2021/12/15 03:21:08;;;;;;;17.90;12.20;;;;;;;6.69;87.37;96840.06;4991353;28;20238;-82
2021/12/15 03:23:40;;;;;;;16.10;11.57;;;;;;;6.67;87.36;96839.38;4992705;28;20203;-82
2021/12/15 03:26:09;;;;;;;19.00;11.67;;;;;;;6.68;87.57;96838.44;4991848;28;20208;-82
2021/12/15 03:34:13;;;;;;;17.67;12.07;;;;;;;6.65;87.80;96836.94;4992350;28;20206;-82
2021/12/15 03:37:10;;;;;;;18.87;12.67;;;;;;;6.70;87.58;96836.56;4991781;28;20230;-82
2021/12/15 03:39:42;;;;;;;18.00;11.47;;;;;;;6.71;87.28;96844.13;4991737;28;20215;-82
2021/12/15 03:42:16;;;;;;;17.20;12.40;;;;;;;6.76;87.47;96851.41;4995306;28;20229;-82
2021/12/15 03:44:44;;;;;;;17.47;11.73;;;;;;;6.78;87.65;96852.13;5004442;28;20234;-82
2021/12/15 03:47:14;;;;;;;17.13;11.80;;;;;;;6.80;87.72;96847.69;5015217;28;20207;-82
2021/12/15 03:49:41;;;;;;;15.93;10.33;;;;;;;6.80;87.57;96850.25;4996284;28;20808;-82
2021/12/15 03:52:09;;;;;;;19.10;12.27;;;;;;;6.79;87.56;96846.06;4994844;28;20210;-82
2021/12/15 03:54:36;;;;;;;20.43;12.03;;;;;;;6.80;87.69;96852.81;4997489;28;20195;-82
2021/12/15 03:57:03;;;;;;;20.80;12.77;;;;;;;6.79;87.73;96862.22;4994789;28;20227;-82
2021/12/15 03:59:33;;;;;;;20.00;12.30;;;;;;;6.78;88.06;96857.22;4994199;28;20250;-82
2021/12/15 04:02:00;;;;;;;21.50;13.73;;;;;;;6.81;87.91;96857.00;4994018;28;20292;-82
2021/12/15 04:04:27;;;;;;;21.37;13.10;;;;;;;6.74;88.96;96858.41;5000617;28;20546;-82
2021/12/15 04:06:53;;;;;;;21.13;12.67;;;;;;;6.69;89.07;96863.09;5010763;28;20249;-82
2021/12/15 04:09:20;;;;;;;20.53;12.77;;;;;;;6.74;88.45;96863.53;4993128;28;20231;-82
2021/12/15 04:11:46;;;;;;;20.30;12.07;;;;;;;6.76;88.82;96865.03;4992986;28;20235;-82
2021/12/15 04:14:19;;;;;;;18.23;12.03;;;;;;;6.78;88.39;96863.16;4973266;28;20208;-82
2021/12/15 04:17:00;;;;;;;18.07;12.67;;;;;;;6.78;88.47;96878.53;4984274;28;20251;-82
2021/12/15 04:19:27;;;;;;;17.20;11.80;;;;;;;6.79;88.63;96867.34;4994160;28;20227;-82
2021/12/15 04:21:54;;;;;;;17.80;11.47;;;;;;;6.79;88.30;96867.34;4995892;28;20227;-82
2021/12/15 04:24:23;;;;;;;18.03;11.00;;;;;;;6.69;88.47;96875.88;4996477;28;20555;-82
2021/12/15 04:26:50;;;;;;;16.67;11.03;;;;;;;6.68;88.65;96869.97;4996608;28;20192;-82
2021/12/15 04:29:17;;;;;;;18.73;11.80;;;;;;;6.69;88.96;96869.03;5001164;28;20265;-82
2021/12/15 04:31:50;;;;;;;17.57;11.70;;;;;;;6.72;88.76;96876.47;4996621;28;20231;-83
2021/12/15 04:34:17;;;;;;;19.13;11.93;;;;;;;6.68;89.21;96871.69;4996402;28;20207;-82
2021/12/15 04:36:45;;;;;;;18.97;12.17;;;;;;;6.69;88.94;96876.69;4992285;28;20337;-82
2021/12/15 04:39:15;;;;;;;21.00;13.00;;;;;;;6.70;89.27;96870.66;4980660;28;20216;-82
2021/12/15 04:41:46;;;;;;;20.00;12.43;;;;;;;6.70;89.70;96874.97;4997236;28;20231;-82
2021/12/15 04:44:13;;;;;;;19.83;12.37;;;;;;;6.64;90.17;96888.22;4995149;28;20434;-82
2021/12/15 04:46:42;;;;;;;23.53;13.17;;;;;;;6.65;90.29;96890.66;5006836;28;20191;-82
2021/12/15 04:49:13;;;;;;;22.37;13.57;;;;;;;6.62;90.31;96885.78;5007337;28;20223;-82
2021/12/15 04:51:39;;;;;;;21.17;13.10;;;;;;;6.61;90.54;96884.16;5000435;28;20246;-82
2021/12/15 04:54:07;;;;;;;19.97;13.30;;;;;;;6.61;90.42;96883.34;4995080;28;20207;-82
2021/12/15 04:56:33;;;;;;;20.73;12.83;;;;;;;6.64;89.99;96883.91;5002332;28;20270;-82
2021/12/15 04:59:00;;;;;;;17.77;12.20;;;;;;;6.62;90.12;96883.22;4994966;28;20718;-82
2021/12/15 05:01:26;;;;;;;18.80;12.60;;;;;;;6.63;89.91;96884.03;4994553;28;20909;-82
2021/12/15 05:03:53;;;;;;;19.17;12.20;;;;;;;6.68;89.63;96881.94;4996888;28;20203;-82
2021/12/15 05:06:21;;;;;;;21.63;11.80;;;;;;;6.69;89.45;96888.69;4999729;28;20246;-81
2021/12/15 05:08:47;;;;;;;20.07;12.47;;;;;;;6.71;89.58;96891.94;4995187;28;20285;-81
2021/12/15 05:11:14;;;;;;;18.17;12.57;;;;;;;6.74;89.39;96899.34;4994657;28;20238;-82
2021/12/15 05:13:40;;;;;;;17.60;11.40;;;;;;;6.77;89.16;96889.69;4995643;28;20203;-82
2021/12/15 05:16:07;;;;;;;18.43;11.37;;;;;;;6.68;89.12;96903.22;4994896;28;20223;-82
2021/12/15 05:18:34;;;;;;;17.23;11.97;;;;;;;6.69;89.47;96901.47;4994797;28;20219;-82
2021/12/15 05:21:01;;;;;;;19.90;12.27;;;;;;;6.72;89.49;96908.94;4994163;28;20606;-82
2021/12/15 05:23:31;;;;;;;21.57;12.50;;;;;;;6.65;90.38;96907.75;4995037;28;20211;-82
2021/12/15 05:25:59;;;;;;;22.83;12.70;;;;;;;6.57;91.15;96910.91;4993868;28;20258;-82
2021/12/15 05:28:26;;;;;;;21.20;13.17;;;;;;;6.61;90.89;96908.94;4994685;28;20224;-82
2021/12/15 05:30:53;;;;;;;21.43;12.83;;;;;;;6.62;91.05;96905.44;5009895;28;20242;-82
2021/12/15 05:33:19;;;;;;;22.93;12.57;;;;;;;6.62;91.04;96911.38;4994238;28;20192;-82
2021/12/15 05:35:46;;;;;;;24.33;13.10;;;;;;;6.61;90.96;96916.59;4994092;28;20242;-82
2021/12/15 05:38:13;;;;;;;22.67;13.20;;;;;;;6.58;91.41;96921.03;4994408;28;20227;-80
2021/12/15 05:40:41;;;;;;;23.07;13.10;;;;;;;6.66;91.63;96919.63;4990225;28;20232;-82
2021/12/15 05:43:08;;;;;;;21.90;13.63;;;;;;;6.62;91.46;96920.78;4988803;28;20847;-81
2021/12/15 05:45:39;;;;;;;20.53;12.60;;;;;;;6.67;91.03;96923.81;4984445;28;20215;-82
2021/12/15 05:48:08;;;;;;;19.13;13.00;;;;;;;6.58;91.05;96926.16;4991225;28;20657;-82
2021/12/15 05:50:35;;;;;;;22.60;13.77;;;;;;;6.64;91.25;96918.94;4992709;28;20231;-82
2021/12/15 05:53:02;;;;;;;22.03;13.70;;;;;;;6.66;90.89;96927.31;4993630;28;20200;-82
2021/12/15 05:55:29;;;;;;;22.63;12.90;;;;;;;6.71;90.71;96935.44;4994773;28;20250;-82
2021/12/15 05:57:57;;;;;;;20.70;12.77;;;;;;;6.73;90.69;96925.91;4993255;28;20231;-82
2021/12/15 06:00:29;;;;;;;19.50;13.33;;;;;;;6.70;90.47;96937.19;4992535;28;20235;-81
2021/12/15 06:02:57;;;;;;;24.07;14.13;;;;;;;6.68;90.89;96933.13;4993444;28;20659;-82
2021/12/15 06:05:24;;;;;;;22.40;13.83;;;;;;;6.55;91.77;96938.34;5005619;28;20211;-81
2021/12/15 06:07:51;;;;;;;23.03;14.13;;;;;;;6.38;92.90;96944.78;5001663;28;20204;-81
2021/12/15 06:10:21;;;;;;;23.90;14.40;;;;;;;6.35;94.08;96944.22;4997931;28;20219;-81
2021/12/15 06:12:49;;;;;;;19.40;13.20;;;;;;;6.39;93.78;96943.84;4996640;28;20266;-81
2021/12/15 06:15:21;;;;;;;22.97;13.90;;;;;;;6.44;93.38;96956.28;4997187;28;20204;-81
2021/12/15 06:17:48;;;;;;;26.93;14.80;;;;;;;6.53;93.04;96955.59;4996983;28;20258;-82
2021/12/15 06:20:15;;;;;;;21.60;14.60;;;;;;;6.62;92.58;96956.63;4996376;28;20420;-82
2021/12/15 06:22:44;;;;;;;21.90;14.57;;;;;;;6.67;92.09;96957.09;4996680;28;20199;-82
2021/12/15 06:25:11;;;;;;;20.20;14.47;;;;;;;6.70;91.77;96967.91;4995685;28;20636;-82
2021/12/15 06:27:40;;;;;;;21.87;15.03;;;;;;;6.74;91.41;96974.41;4995675;28;20200;-82
2021/12/15 06:30:08;;;;;;;24.50;15.90;;;;;;;6.79;90.83;96971.50;4995481;28;20235;-82
2021/12/15 06:32:36;;;;;;;19.30;15.00;;;;;;;6.80;90.76;96975.69;4995793;28;20230;-82
2021/12/15 06:35:04;;;;;;;21.90;16.03;;;;;;;6.81;90.14;96974.75;4995499;28;20330;-82
2021/12/15 06:37:31;;;;;;;26.80;16.33;;;;;;;6.71;90.71;96973.84;4992563;28;20227;-82
2021/12/15 06:39:57;;;;;;;25.33;17.30;;;;;;;6.64;91.01;96978.59;4991853;28;20285;-81
2021/12/15 06:42:24;;;;;;;23.67;16.60;;;;;;;6.70;90.95;96974.78;4993393;28;20230;-81
2021/12/15 06:44:50;;;;;;;26.57;18.10;;;;;;;6.74;90.75;96978.69;4992775;28;20207;-82
2021/12/15 06:47:39;;;;;;;29.17;18.53;;;;;;;6.77;96.25;96978.47;4994357;28;20290;-81
2021/12/15 06:58:25;;;;;;;24.40;18.20;;;;;;;6.82;91.50;96987.44;4993778;28;20230;-82
2021/12/15 07:00:55;;;;;;;22.23;17.37;;;;;;;6.86;90.85;96995.69;4993272;28;20297;-81
2021/12/15 07:03:23;;;;;;;21.97;16.53;;;;;;;6.90;90.27;96999.66;4994819;28;20199;-81
2021/12/15 07:05:52;;;;;;;19.17;15.53;;;;;;;6.90;89.60;97002.22;4993452;28;20200;-82
2021/12/15 07:08:19;;;;;;;21.63;15.83;;;;;;;6.87;90.56;97007.56;4993894;28;20282;-82
2021/12/15 07:10:49;;;;;;;21.27;15.67;;;;;;;6.76;91.52;97000.69;4992978;28;20219;-82
2021/12/15 07:13:17;;;;;;;19.87;15.53;;;;;;;6.66;92.18;97007.47;4993878;28;20203;-82
2021/12/15 07:15:45;;;;;;;19.90;15.43;;;;;;;6.72;91.54;97008.75;4994090;28;20207;-82
2021/12/15 07:18:14;;;;;;;19.30;14.23;;;;;;;6.68;91.69;97015.84;4991491;28;20223;-82
2021/12/15 07:20:46;;;;;;;19.03;14.37;;;;;;;6.59;91.33;97009.66;4992150;28;20799;-81
2021/12/15 07:23:16;;;;;;;17.23;13.80;;;;;;;6.45;91.69;97006.53;4993057;28;20199;-81
2021/12/15 07:25:46;;;;;;;18.70;13.97;;;;;;;6.35;92.43;97001.28;4997790;28;20210;-82
2021/12/15 07:28:12;;;;;;;18.53;14.87;;;;;;;6.43;92.32;97004.09;4992496;28;20622;-81
2021/12/15 07:30:40;;;;;;;17.77;13.97;;;;;;;6.42;91.70;97004.19;4993036;28;20238;-81
2021/12/15 07:33:08;;;;;;;17.90;14.20;;;;;;;6.52;91.73;97007.69;4986809;28;20667;-81
2021/12/15 07:35:36;;;;;;;16.07;13.90;;;;;;;6.63;91.28;97014.56;4993050;28;20203;-81
2021/12/15 07:38:03;;;;;;;19.20;14.60;;;;;;;6.59;90.13;97019.91;4992775;28;20664;-81
2021/12/15 07:40:31;;;;;;;19.10;16.60;;;;;;;6.70;89.96;97008.03;4987102;28;20228;-81
2021/12/15 07:43:11;;;;;;;21.03;15.37;;;;;;;6.78;89.93;97009.06;4993646;28;20601;-81
2021/12/15 07:45:41;;;;;;;17.13;13.83;;;;;;;6.85;89.17;97014.53;4994224;28;20254;-81
2021/12/15 07:48:10;;;;;;;18.23;12.80;;;;;;;6.91;89.05;97027.69;4995712;28;20223;-82
2021/12/15 07:50:38;;;;;;;17.67;13.70;;;;;;;6.90;88.83;97025.25;4996614;28;20227;-81
2021/12/15 07:53:05;;;;;;;16.70;13.60;;;;;;;6.94;88.71;97031.75;4998327;28;20212;-82
2021/12/15 07:55:33;;;;;;;15.70;13.30;;;;;;;6.94;88.79;97037.69;5000695;28;20207;-81
2021/12/15 07:58:02;;;;;;;16.67;13.23;;;;;;;6.95;88.95;97033.38;5001006;28;20223;-81
2021/12/15 08:00:28;;;;;;;18.20;13.60;;;;;;;6.97;88.79;97035.81;5001686;28;20278;-82
2021/12/15 08:02:55;;;;;;;17.93;13.17;;;;;;;6.93;88.63;97043.72;5002712;28;20199;-81
2021/12/15 08:05:22;;;;;;;17.30;12.97;;;;;;;6.96;88.62;97050.38;5008688;28;20226;-82
2021/12/15 08:07:48;;;;;;;16.63;13.30;;;;;;;6.88;88.50;97050.16;5000026;28;20195;-82
2021/12/15 08:10:16;;;;;;;17.30;13.70;;;;;;;6.90;88.52;97049.09;4996466;28;20238;-81
2021/12/15 08:12:46;;;;;;;16.27;12.90;;;;;;;6.92;88.91;97054.94;4993735;28;20199;-84
2021/12/15 08:15:13;;;;;;;19.23;14.57;;;;;;;6.93;88.62;97060.84;4996512;28;20219;-84
2021/12/15 08:17:42;;;;;;;19.13;13.37;;;;;;;6.98;88.43;97057.94;4998947;28;20242;-82
2021/12/15 08:20:11;;;;;;;16.53;13.00;;;;;;;6.99;88.53;97060.38;4962861;28;20229;-82
2021/12/15 08:22:39;;;;;;;17.43;13.50;;;;;;;7.01;88.38;97061.06;4959806;28;20267;-82
2021/12/15 08:25:07;;;;;;;22.20;14.77;;;;;;;7.01;88.30;97057.69;4961985;28;20205;-81
2021/12/15 08:27:33;;;;;;;19.40;14.30;;;;;;;7.01;88.44;97058.50;4958501;29;20665;-81
2021/12/15 08:30:01;;;;;;;22.40;14.97;;;;;;;7.01;88.52;97055.94;4967188;28;20252;-82
2021/12/15 08:32:28;;;;;;;23.07;14.67;;;;;;;7.03;88.06;97066.09;4970766;28;20668;-82
2021/12/15 08:34:54;;;;;;;20.87;15.03;;;;;;;7.02;88.13;97052.47;4960121;28;20661;-82
2021/12/15 08:37:21;;;;;;;17.73;13.83;;;;;;;7.04;88.45;97065.16;4960209;28;20236;-82
2021/12/15 08:39:47;;;;;;;22.10;15.47;;;;;;;7.08;88.10;97062.25;4958365;28;20229;-82
2021/12/15 08:42:15;;;;;;;21.63;14.17;;;;;;;7.10;87.77;97060.38;4960015;28;20280;-81
2021/12/15 08:44:41;;;;;;;20.57;14.43;;;;;;;7.13;87.54;97062.69;4966983;28;20204;-82
2021/12/15 08:47:10;;;;;;;17.40;13.07;;;;;;;7.14;87.18;97059.19;4963569;28;20264;-81
2021/12/15 08:49:37;;;;;;;20.83;14.03;;;;;;;7.12;87.45;97050.03;4956463;28;20638;-81
2021/12/15 08:52:06;;;;;;;19.60;15.07;;;;;;;7.12;87.40;97055.94;4985415;28;20209;-81
2021/12/15 08:54:32;;;;;;;18.37;13.00;;;;;;;7.15;87.58;97054.88;4965090;28;20205;-81
2021/12/15 08:56:59;;;;;;;21.60;15.57;;;;;;;7.20;87.47;97052.78;4966739;28;20665;-81
2021/12/15 08:59:25;;;;;;;23.43;17.43;;;;;;;7.09;88.24;97055.38;4959227;28;20239;-82
2021/12/15 09:01:53;;;;;;;19.50;14.57;;;;;;;7.05;88.73;97062.47;4959669;28;20228;-81
2021/12/15 09:04:21;;;;;;;20.77;14.77;;;;;;;7.08;89.02;97069.09;4959565;28;20209;-82
2021/12/15 09:06:48;;;;;;;19.20;14.67;;;;;;;7.06;89.09;97065.84;4957214;28;20255;-81
2021/12/15 09:09:17;;;;;;;20.40;14.30;;;;;;;7.11;89.01;97072.25;4959445;29;20858;-81
2021/12/15 09:11:44;;;;;;;20.33;14.23;;;;;;;7.16;88.89;97066.75;4959101;28;20237;-81
2021/12/15 09:14:11;;;;;;;15.23;11.30;;;;;;;6.98;88.25;97065.59;4958648;28;20673;-81
2021/12/15 09:16:41;;;;;;;14.63;10.83;;;;;;;6.95;88.74;97061.53;4958445;28;20215;-82
2021/12/15 09:19:09;;;;;;;15.00;10.03;;;;;;;6.96;88.73;97064.91;4959280;28;20229;-82
2021/12/15 09:21:38;;;;;;;13.43;9.40;;;;;;;7.06;88.55;97065.84;4957939;28;20636;-81
2021/12/15 09:24:06;;;;;;;11.40;8.50;;;;;;;6.96;88.22;97067.47;4953443;28;20209;-82
2021/12/15 09:26:34;;;;;;;12.83;8.53;;;;;;;7.00;89.07;97064.56;4956542;28;20209;-81
2021/12/15 09:29:01;;;;;;;11.17;7.60;;;;;;;6.95;89.27;97064.09;4957724;28;20864;-82
2021/12/15 09:31:27;;;;;;;10.37;6.63;;;;;;;6.96;89.43;97060.59;4951949;28;20596;-82
2021/12/15 09:33:56;;;;;;;9.63;6.83;;;;;;;6.99;88.91;97057.00;4957626;28;20205;-81
2021/12/15 09:36:25;;;;;;;7.60;6.30;;;;;;;6.98;88.68;97061.31;4958232;28;20209;-81
2021/12/15 09:38:55;;;;;;;10.00;7.00;;;;;;;7.07;88.55;97064.91;4939164;29;20609;-82
2021/12/15 09:41:24;;;;;;;9.37;6.57;;;;;;;7.05;88.40;97062.47;4952461;28;20224;-82
2021/12/15 09:43:54;;;;;;;9.97;7.00;;;;;;;7.04;88.27;97063.41;4958124;28;20201;-81
2021/12/15 09:46:29;;;;;;;8.63;6.20;;;;;;;6.94;88.89;97062.47;4957760;28;20680;-81
2021/12/15 09:57:36;;;;;;;8.73;6.17;;;;;;;6.85;91.76;97066.56;4976010;28;20319;-81
2021/12/15 10:02:58;;;;;;;8.40;5.90;;;;;;;6.94;90.01;97060.72;4956690;28;20212;-81
2021/12/15 10:05:40;;;;;;;7.90;5.83;;;;;;;6.85;91.10;97061.44;4970851;28;20211;-81
2021/12/15 10:19:23;;;;;;;5.03;4.27;;;;;;;6.94;90.00;97047.09;4953785;28;20235;-82
2021/12/15 10:22:09;;;;;;;5.60;4.33;;;;;;;6.87;90.12;97045.97;4954432;28;20249;-82
2021/12/15 10:24:45;;;;;;;6.87;4.20;;;;;;;6.71;90.71;97037.84;4958628;28;20200;-82
2021/12/15 10:27:16;;;;;;;4.70;3.70;;;;;;;6.75;90.89;97046.88;4974587;28;20207;-82
2021/12/15 10:30:01;;;;;;;4.93;3.90;;;;;;;6.79;90.21;97038.03;4961064;28;20224;-81
2021/12/15 10:32:31;;;;;;;5.30;3.97;;;;;;;6.88;90.38;97035.59;4953174;28;20211;-82
2021/12/15 10:35:08;;;;;;;6.83;4.33;;;;;;;6.94;90.23;97036.84;4952183;28;20236;-81
2021/12/15 10:37:36;;;;;;;5.20;4.27;;;;;;;7.03;89.66;97036.16;4962618;28;20228;-82
2021/12/15 10:40:20;;;;;;;5.57;4.50;;;;;;;7.07;88.99;97035.00;4966829;28;20237;-81
2021/12/15 10:43:01;;;;;;;5.20;4.23;;;;;;;7.15;88.50;97039.50;4953887;28;20208;-82
2021/12/15 10:45:35;;;;;;;8.83;8.00;;;;;;;7.17;88.58;97024.84;4954158;29;20204;-82
2021/12/15 10:48:02;;;;;;;5.27;4.67;;;;;;;7.18;88.31;97034.16;4954826;29;20221;-81
2021/12/15 10:50:28;;;;;;;4.97;4.43;;;;;;;7.18;88.41;97040.09;4953315;28;20225;-81
2021/12/15 10:52:58;;;;;;;4.80;4.10;;;;;;;7.10;88.03;97037.31;4953973;29;20197;-81
2021/12/15 10:55:31;;;;;;;6.17;4.47;;;;;;;7.14;88.07;97033.56;4961894;28;20231;-81
2021/12/15 10:58:00;;;;;;;5.00;4.10;;;;;;;7.22;87.78;97036.38;4956422;28;20228;-82
2021/12/15 11:00:35;;;;;;;4.70;4.20;;;;;;;7.27;87.39;97034.25;4952097;28;20779;-81
2021/12/15 11:03:05;;;;;;;4.90;3.73;;;;;;;7.32;87.00;97028.75;4953608;28;20235;-82
2021/12/15 11:05:32;;;;;;;5.13;4.13;;;;;;;7.33;86.73;97027.00;4967528;28;20204;-82
2021/12/15 11:08:00;;;;;;;4.77;3.77;;;;;;;7.28;86.72;97024.81;4957989;28;20224;-81
2021/12/15 11:10:31;;;;;;;4.80;3.93;;;;;;;7.28;87.00;97025.66;4955130;28;20367;-81
2021/12/15 11:13:02;;;;;;;4.10;3.60;;;;;;;7.31;87.11;97014.34;4954671;29;20193;-82
2021/12/15 11:15:31;;;;;;;4.00;3.50;;;;;;;7.31;86.60;97021.22;4953543;28;20205;-82
2021/12/15 11:18:00;;;;;;;4.63;3.80;;;;;;;7.07;87.02;97014.50;4953012;28;20227;-82
2021/12/15 11:20:28;;;;;;;5.20;3.93;;;;;;;6.88;88.22;97014.31;4953587;28;20245;-82
2021/12/15 11:22:59;;;;;;;5.47;4.30;;;;;;;6.88;88.18;97010.00;4954681;28;20869;-82
2021/12/15 11:25:39;;;;;;;5.13;4.63;;;;;;;6.98;88.26;97014.41;4956185;28;20204;-82
2021/12/15 11:28:13;;;;;;;5.37;4.50;;;;;;;7.11;87.43;97005.66;4952988;28;20228;-82
2021/12/15 11:30:44;;;;;;;5.33;4.60;;;;;;;7.24;86.61;97013.19;4953221;28;20220;-82
2021/12/15 11:33:14;;;;;;;22.50;15.93;;;;;;;7.16;86.45;97011.22;4958499;28;20208;-80
2021/12/15 11:35:43;;;;;;;9.07;6.73;;;;;;;7.08;87.96;97008.47;4962552;28;20263;-82
2021/12/15 11:38:14;;;;;;;8.53;6.97;;;;;;;7.04;87.48;97006.25;4964500;28;20228;-82
2021/12/15 11:40:46;;;;;;;11.53;7.83;;;;;;;7.06;87.78;97006.94;4955966;28;20236;-82
2021/12/15 11:43:29;;;;;;;9.07;6.47;;;;;;;7.14;87.20;97007.16;4955515;28;20197;-82
2021/12/15 11:45:55;;;;;;;7.20;6.17;;;;;;;7.08;85.33;96999.97;4955872;28;20200;-82
2021/12/15 11:48:25;;;;;;;7.70;5.90;;;;;;;6.97;86.17;96995.66;4953972;28;20272;-82
2021/12/15 11:50:54;;;;;;;6.70;5.80;;;;;;;6.89;86.77;96993.72;4954447;28;20221;-82
2021/12/15 11:53:35;;;;;;;7.20;5.57;;;;;;;6.82;87.42;96997.66;4954316;29;20209;-82
2021/12/15 11:56:13;;;;;;;6.37;5.60;;;;;;;6.92;89.33;96996.03;4954095;28;20232;-82
2021/12/15 11:58:42;;;;;;;6.10;4.87;;;;;;;7.03;87.13;96999.50;4955326;29;20256;-83
2021/12/15 12:01:09;;;;;;;6.00;5.07;;;;;;;6.99;86.21;96998.09;4957785;28;20708;-82
2021/12/15 12:03:35;;;;;;;6.20;5.00;;;;;;;6.94;87.95;96993.34;4953444;28;20716;-82
2021/12/15 12:06:02;;;;;;;6.70;6.00;;;;;;;6.82;87.03;96996.84;4955674;28;20236;-82
2021/12/15 12:08:31;;;;;;;7.40;5.27;;;;;;;6.67;88.33;96996.28;4953709;28;20220;-82
2021/12/15 12:11:05;;;;;;;7.40;5.37;;;;;;;6.67;88.08;96987.81;4954817;28;20237;-82
2021/12/15 12:13:38;;;;;;;7.63;6.30;;;;;;;6.74;89.46;96991.50;4954643;28;20213;-82
2021/12/15 12:16:08;;;;;;;6.37;5.40;;;;;;;6.63;88.84;96994.06;4953882;28;20264;-82
2021/12/15 12:18:35;;;;;;;6.23;5.43;;;;;;;6.63;89.64;96982.09;4953886;28;20304;-82
2021/12/15 12:21:06;;;;;;;6.20;5.33;;;;;;;6.59;90.09;96975.59;4954052;28;20236;-82
2021/12/15 12:23:34;;;;;;;6.37;5.10;;;;;;;6.61;90.66;96968.59;4954393;29;20427;-82
2021/12/15 12:26:03;;;;;;;6.77;4.80;;;;;;;6.68;90.46;96961.28;4959092;28;20448;-82
2021/12/15 12:28:32;;;;;;;6.27;4.77;;;;;;;6.68;90.46;96971.50;4953452;28;20227;-82
2021/12/15 12:31:02;;;;;;;6.63;4.97;;;;;;;6.71;90.49;96958.47;4964068;28;20232;-82
2021/12/15 12:33:31;;;;;;;5.37;4.77;;;;;;;6.72;89.75;96970.34;4952933;28;20208;-82
2021/12/15 12:36:03;;;;;;;6.03;4.77;;;;;;;6.67;88.94;96967.31;4953407;28;20216;-82